»·PEaware :: FFT9015 KPHX-KLAS

FFT9015 :: KPHX-KLAS

FLIGHT INFORMATION

Flight Status: Arrived
Operator:
Frontier Airlines
More flights by this operator :: More flights under this callsign
Pilot: Jesse M. (22378)
Aircraft: AIRBUS A319
(A319)
More flights by this aircraft type
Origin: KPHX Phoenix Sky Harbor Intl
United States
Destination: KLAS McCarran Intl
United States
More flights between these airports :: More routes between these airports
Route: +ZEPER1 SISIE IGM TYSSN5
File this flight plan on PilotEdge
Remarks: 104TH_KNIGHT / YOUTUBE
Altitude:
(Current/Filed)
30,000ft
Speed:
(Current/Filed)
450kts
Departed: 06-Dec-18 09:47 AM
Arrived: 06-Dec-18 10:34 AM
Distance/Time
Traveled:
221nm/0:47
Distance/Time
To Go:
Arrived

Flight Plot

Page will automatically refresh every two minutes.

Flight plan parsing failed; only flown route is shown


Map Options




Map Legend


Flown Route
Filed Route
Departure Airport
Arrival Airport
Navaid (VOR, NDB)
Fix

Horizontal Profiles

Position Reports

Time Latitude Longitude Heading Altitude Ground
Speed
06-Dec-18 09:17 33.437990 -112.002458 115 1140ft 0kts
06-Dec-18 09:18 33.437990 -112.002458 115 1140ft 0kts
06-Dec-18 09:19 33.437990 -112.002458 115 1140ft 0kts
06-Dec-18 09:20 33.437990 -112.002458 115 1140ft 0kts
06-Dec-18 09:21 33.437990 -112.002458 115 1140ft 0kts
06-Dec-18 09:22 33.437990 -112.002458 115 1140ft 0kts
06-Dec-18 09:23 33.437990 -112.002458 115 1140ft 0kts
06-Dec-18 09:24 33.437990 -112.002458 115 1140ft 0kts
06-Dec-18 09:25 33.437990 -112.002458 115 1140ft 0kts
06-Dec-18 09:26 33.437990 -112.002458 115 1140ft 0kts
06-Dec-18 09:27 33.437990 -112.002458 115 1140ft 0kts
06-Dec-18 09:28 33.437990 -112.002458 115 1140ft 0kts
06-Dec-18 09:29 33.437990 -112.002458 115 1140ft 0kts
06-Dec-18 09:30 33.437990 -112.002458 115 1140ft 0kts
06-Dec-18 09:31 33.437990 -112.002458 115 1140ft 0kts
06-Dec-18 09:31 33.437990 -112.002458 115 1140ft 0kts
06-Dec-18 09:33 33.437990 -112.002458 115 1140ft 0kts
06-Dec-18 09:33 33.437990 -112.002458 115 1140ft 0kts
06-Dec-18 09:34 33.437990 -112.002458 115 1140ft 0kts
06-Dec-18 09:36 33.438043 -112.002693 82 1140ft 2kts
06-Dec-18 09:36 33.437753 -112.003036 1 1140ft 1kts
06-Dec-18 09:37 33.437698 -112.003035 1 1140ft 0kts
06-Dec-18 09:38 33.437698 -112.003035 1 1140ft 0kts
06-Dec-18 09:39 33.437800 -112.003032 1 1140ft 8kts
06-Dec-18 09:40 33.439732 -112.004261 266 1140ft 9kts
06-Dec-18 09:41 33.439725 -112.009185 270 1140ft 18kts
06-Dec-18 09:42 33.439731 -112.015388 270 1140ft 20kts
06-Dec-18 09:43 33.439735 -112.022028 269 1140ft 21kts
06-Dec-18 09:44 33.439728 -112.028502 269 1140ft 15kts
06-Dec-18 09:45 33.440863 -112.028918 88 1140ft 5kts
06-Dec-18 09:46 33.440675 -111.995889 87 1589ft 176kts
06-Dec-18 09:47 33.438216 -111.937875 91 3935ft 205kts
06-Dec-18 09:48 33.441057 -111.864912 56 5930ft 266kts
06-Dec-18 09:49 33.507742 -111.842909 1 8842ft 278kts
06-Dec-18 09:50 33.583972 -111.839720 2 8991ft 278kts
06-Dec-18 09:51 33.661312 -111.838437 354 10121ft 287kts
06-Dec-18 09:52 33.742732 -111.867882 315 11560ft 348kts
06-Dec-18 09:53 33.803367 -111.964873 302 13680ft 381kts
06-Dec-18 09:54 33.866352 -112.068729 303 16042ft 395kts
06-Dec-18 09:55 33.931079 -112.175027 302 18115ft 405kts
06-Dec-18 09:56 33.996902 -112.283514 302 19944ft 415kts
06-Dec-18 09:57 34.077884 -112.384664 315 21591ft 434kts
06-Dec-18 09:58 34.171057 -112.477989 314 23027ft 444kts
06-Dec-18 09:59 34.266202 -112.573808 314 24269ft 454kts
06-Dec-18 10:00 34.361881 -112.670619 313 25884ft 453kts
06-Dec-18 10:01 34.455793 -112.766316 312 27496ft 449kts
06-Dec-18 10:02 34.550030 -112.862324 311 28934ft 447kts
06-Dec-18 10:03 34.641256 -112.960225 309 30172ft 444kts
06-Dec-18 10:04 34.731921 -113.059535 306 30175ft 453kts
06-Dec-18 10:05 34.823585 -113.160463 309 30180ft 444kts
06-Dec-18 10:06 34.914193 -113.260010 309 30170ft 443kts
06-Dec-18 10:07 34.996480 -113.368247 303 30157ft 437kts
06-Dec-18 10:08 35.077078 -113.477271 304 29781ft 436kts
06-Dec-18 10:09 35.154113 -113.580546 304 28861ft 428kts
06-Dec-18 10:10 35.232196 -113.685880 304 27915ft 429kts
06-Dec-18 10:11 35.310951 -113.792823 305 26404ft 431kts
06-Dec-18 10:12 35.389338 -113.899399 306 22896ft 417kts
06-Dec-18 10:13 35.464284 -114.001446 307 20414ft 395kts
06-Dec-18 10:14 35.536220 -114.099515 306 17991ft 387kts
06-Dec-18 10:15 35.601439 -114.189127 308 15880ft 323kts
06-Dec-18 10:16 35.656629 -114.264934 308 14035ft 279kts
06-Dec-18 10:17 35.706865 -114.334197 308 12332ft 271kts
06-Dec-18 10:18 35.764587 -114.392632 329 12022ft 277kts
06-Dec-18 10:19 35.836268 -114.427032 334 12022ft 279kts
06-Dec-18 10:20 35.907797 -114.460478 334 12022ft 279kts
06-Dec-18 10:21 35.975534 -114.492125 333 11274ft 238kts
06-Dec-18 10:22 36.031505 -114.529030 306 9422ft 228kts
06-Dec-18 10:23 36.051166 -114.600116 282 8028ft 210kts
06-Dec-18 10:24 36.063365 -114.670986 282 8014ft 210kts
06-Dec-18 10:25 36.073242 -114.741721 270 7997ft 208kts
06-Dec-18 10:26 36.073413 -114.815736 268 6849ft 224kts
06-Dec-18 10:27 36.073680 -114.892865 272 5578ft 216kts
06-Dec-18 10:28 36.073814 -114.958667 275 4774ft 161kts
06-Dec-18 10:29 36.073827 -115.010711 272 3966ft 149kts
06-Dec-18 10:30 36.073750 -115.060360 271 3201ft 143kts
06-Dec-18 10:31 36.073722 -115.109274 271 2429ft 142kts
06-Dec-18 10:32 36.073869 -115.148317 287 2120ft 41kts
06-Dec-18 10:33 36.074847 -115.150943 312 2120ft 4kts
06-Dec-18 10:34 36.077651 -115.152713 340 2120ft 0kts
06-Dec-18 10:35 36.077851 -115.148266 92 2120ft 18kts
06-Dec-18 10:36 36.077493 -115.141599 89 2120ft 20kts
06-Dec-18 10:37 36.077512 -115.134394 87 2120ft 18kts
06-Dec-18 10:38 36.081453 -115.134454 311 2120ft 15kts
06-Dec-18 10:39 36.082156 -115.135831 298 2120ft 0kts
06-Dec-18 10:40 36.082156 -115.135831 298 2120ft 0kts

Navigation Log

Ident Type
Flight plan parsing failed, navigation log unavailable